createdAt,value
2022-08-25T00:02:57.056Z,10.2
2022-08-25T00:07:51.485Z,11
2022-08-25T00:12:53.758Z,10.8
2022-08-25T00:17:56.265Z,10.7
2022-08-25T00:22:58.659Z,10
2022-08-25T00:28:08.429Z,9.7
2022-08-25T00:33:01.974Z,9.3
2022-08-25T00:38:04.827Z,9.5
2022-08-25T00:43:07.710Z,8.9
2022-08-25T00:48:10.241Z,9.1
2022-08-25T00:53:12.706Z,9.3
2022-08-25T00:58:15.017Z,9.4
2022-08-25T01:03:17.593Z,8.9
2022-08-25T01:08:20.103Z,9.4
2022-08-25T01:13:22.435Z,8.8
2022-08-25T01:18:25.032Z,9.9
2022-08-25T01:23:27.815Z,9.5
2022-08-25T01:28:30.309Z,9.3
2022-08-25T01:33:32.981Z,8.9
2022-08-25T01:38:36.045Z,9.7
2022-08-25T01:43:38.402Z,9.4
2022-08-25T01:48:41.015Z,10
2022-08-25T01:53:43.486Z,9.7
2022-08-25T01:58:45.904Z,9.7
2022-08-25T02:03:49.792Z,10.1
2022-08-25T02:08:53.210Z,9.5
2022-08-25T02:13:55.927Z,9.3
2022-08-25T02:18:58.833Z,11.6
2022-08-25T02:24:01.601Z,19.5
2022-08-25T02:29:04.094Z,9.4
2022-08-25T02:34:06.483Z,9.2
2022-08-25T02:39:09.161Z,9.6
2022-08-25T02:44:11.874Z,8.9
2022-08-25T02:49:14.379Z,9
2022-08-25T02:54:16.889Z,8.6
2022-08-25T02:59:19.195Z,8.9
2022-08-25T03:04:21.795Z,8.5
2022-08-25T03:09:24.354Z,8.9
2022-08-25T03:14:27.103Z,9.5
2022-08-25T03:19:30.177Z,9.1
2022-08-25T03:24:32.696Z,9.5
2022-08-25T03:29:35.171Z,9.8
2022-08-25T03:34:40.138Z,9.3
2022-08-25T03:39:42.669Z,9.1
2022-08-25T03:44:45.335Z,9
2022-08-25T03:49:47.936Z,8.6
2022-08-25T03:54:50.638Z,8.8
2022-08-25T03:59:53.242Z,9
2022-08-25T04:04:56.493Z,9.3
2022-08-25T04:09:59.359Z,8.5
2022-08-25T04:15:02.133Z,8.6
2022-08-25T04:20:04.975Z,8.9
2022-08-25T04:25:07.561Z,8.5
2022-08-25T04:30:09.829Z,8.5
2022-08-25T04:35:12.370Z,8.1
2022-08-25T04:40:15.040Z,7.2
2022-08-25T04:45:17.825Z,7.6
2022-08-25T04:50:20.477Z,7.8
2022-08-25T04:55:22.928Z,7.6
2022-08-25T05:00:25.423Z,7
2022-08-25T05:05:27.754Z,6.7
2022-08-25T05:10:30.066Z,6.8
2022-08-25T05:15:32.883Z,6.9
2022-08-25T05:20:37.047Z,21.1
2022-08-25T05:25:39.583Z,5.8
2022-08-25T05:30:41.875Z,12.1
2022-08-25T05:35:44.276Z,34.8
2022-08-25T05:40:46.847Z,5.1
2022-08-25T05:45:49.387Z,4.8
2022-08-25T05:50:52.037Z,4.4
2022-08-25T05:55:54.437Z,10
2022-08-25T06:00:57.248Z,4.1
2022-08-25T06:06:00.202Z,4.5
2022-08-25T06:11:02.712Z,4.2
2022-08-25T06:16:05.463Z,3.7
2022-08-25T06:21:08.108Z,3.9
2022-08-25T06:26:10.419Z,3.5
2022-08-25T06:31:13.183Z,3.9
2022-08-25T06:36:13.981Z,3.4
2022-08-25T06:41:16.428Z,3.9
2022-08-25T06:46:19.373Z,3.7
2022-08-25T06:51:22.194Z,3.6
2022-08-25T06:56:25.080Z,3.8
2022-08-25T07:01:32.989Z,3.8
2022-08-25T07:06:36.036Z,3.8
2022-08-25T07:11:38.392Z,3.4
2022-08-25T07:16:43.196Z,3.7
2022-08-25T07:21:42.061Z,3.8
2022-08-25T07:26:47.269Z,3.6
2022-08-25T07:31:49.767Z,3.6
2022-08-25T07:36:53.830Z,3.3
2022-08-25T07:41:56.756Z,4
2022-08-25T07:46:59.628Z,3.4
2022-08-25T07:52:07.030Z,2.9
2022-08-25T07:57:12.204Z,2.8
2022-08-25T08:02:20.175Z,2.7
2022-08-25T08:07:18.353Z,3
2022-08-25T08:12:20.879Z,2.6
2022-08-25T08:17:25.388Z,2.8
2022-08-25T08:22:27.942Z,2.2
2022-08-25T08:27:30.515Z,2.5
2022-08-25T08:33:09.954Z,2.3
2022-08-25T08:37:34.629Z,2.4
2022-08-25T08:42:36.932Z,2.4
2022-08-25T08:47:39.629Z,2.2
2022-08-25T08:52:43.543Z,2.1
2022-08-25T08:57:50.175Z,2.1
2022-08-25T09:02:55.237Z,2.4
2022-08-25T09:07:58.175Z,2.2
2022-08-25T09:13:02.218Z,2.1
2022-08-25T09:18:06.053Z,2.5
2022-08-25T09:23:14.493Z,2.2
2022-08-25T09:28:22.655Z,2.3
2022-08-25T09:33:25.060Z,2.1
2022-08-25T09:38:27.679Z,1.9
2022-08-25T09:43:31.053Z,1.9
2022-08-25T09:48:40.618Z,2.1
2022-08-25T09:53:43.885Z,2.2
2022-08-25T09:58:46.557Z,2
2022-08-25T10:03:48.845Z,2
2022-08-25T10:08:52.764Z,2.1
2022-08-25T10:13:55.294Z,2.1
2022-08-25T10:18:59.638Z,2.4
2022-08-25T10:24:02.230Z,2.4
2022-08-25T10:29:05.451Z,2.4
2022-08-25T10:34:08.051Z,2.2
2022-08-25T10:39:40.586Z,2.5
2022-08-25T10:44:13.743Z,2.7
2022-08-25T10:50:27.525Z,2.8
2022-08-25T10:55:30.110Z,2.6
2022-08-25T11:00:34.446Z,2.8
2022-08-25T11:05:37.381Z,2.9
2022-08-25T11:10:39.979Z,2.8
2022-08-25T11:16:16.347Z,2.6
2022-08-25T11:20:51.075Z,2.8
2022-08-25T11:25:53.906Z,2.7
2022-08-25T11:30:58.142Z,2.8
2022-08-25T11:36:02.517Z,2.8
2022-08-25T11:41:12.440Z,2.9
2022-08-25T11:46:15.009Z,2.8
2022-08-25T11:51:17.952Z,2.6
2022-08-25T11:56:23.992Z,2.5
2022-08-25T12:01:30.429Z,2.5
2022-08-25T12:06:32.934Z,2.6
2022-08-25T12:11:36.008Z,2.8
2022-08-25T12:16:44.463Z,2.6
2022-08-25T12:21:52.017Z,2.7
2022-08-25T12:26:54.733Z,2.8
2022-08-25T12:32:04.755Z,2.5
2022-08-25T12:37:00.378Z,2.5
2022-08-25T12:42:11.265Z,2.9
2022-08-25T12:47:14.150Z,2.6
2022-08-25T12:52:17.184Z,2.7
2022-08-25T12:57:29.711Z,2.8
2022-08-25T13:02:25.052Z,2.6
2022-08-25T13:07:32.339Z,2.5
2022-08-25T13:12:35.614Z,2.7
2022-08-25T13:17:38.751Z,2.5
2022-08-25T13:22:41.555Z,2.5
2022-08-25T13:27:45.130Z,2.4
2022-08-25T13:32:47.759Z,2.8
2022-08-25T13:37:50.362Z,2.7
2022-08-25T13:42:57.446Z,2.8
2022-08-25T13:48:05.706Z,2.6
2022-08-25T13:53:03.700Z,2.4
2022-08-25T13:58:15.176Z,2.7
2022-08-25T14:03:13.870Z,3
2022-08-25T14:08:25.946Z,2.5
2022-08-25T14:13:12.131Z,2.9
2022-08-25T14:18:20.298Z,2.3
2022-08-25T14:23:20.282Z,2.7
2022-08-25T14:28:23.611Z,2.7
2022-08-25T14:33:28.354Z,2.4
2022-08-25T14:38:33.093Z,2.5
2022-08-25T14:43:35.994Z,2.5
2022-08-25T14:48:40.492Z,2.8
2022-08-25T14:53:45.116Z,3
2022-08-25T14:58:54.089Z,2.6
2022-08-25T15:03:50.246Z,2.6
2022-08-25T15:08:55.035Z,2.4
2022-08-25T15:13:58.178Z,2.3
2022-08-25T15:19:00.716Z,2.5
2022-08-25T15:24:08.459Z,2.4
2022-08-25T15:29:12.566Z,2.7
2022-08-25T15:34:17.355Z,2.7
2022-08-25T15:39:22.324Z,2.5
2022-08-25T15:44:30.232Z,2.6
2022-08-25T15:49:33.105Z,2.6
2022-08-25T15:54:37.045Z,2.5
2022-08-25T15:59:42.628Z,2.6
2022-08-25T16:04:46.731Z,2.6
2022-08-25T16:09:52.110Z,2.3
2022-08-25T16:14:55.977Z,2.5
2022-08-25T16:20:00.809Z,2.4
2022-08-25T16:25:22.771Z,2.4
2022-08-25T16:30:25.324Z,2.9
2022-08-25T16:35:30.318Z,3
2022-08-25T16:40:37.226Z,2.4
2022-08-25T16:45:43.594Z,2.5
2022-08-25T16:50:46.475Z,2.7
2022-08-25T16:55:52.405Z,2.5
2022-08-25T17:00:55.614Z,2.8
2022-08-25T17:06:00.639Z,2.5
2022-08-25T17:11:03.749Z,2.6
2022-08-25T17:16:08.609Z,3
2022-08-25T17:21:23.861Z,39.3
2022-08-25T17:26:18.437Z,290.8
2022-08-25T17:31:19.094Z,315
2022-08-25T17:36:28.011Z,211.5
2022-08-25T17:41:30.487Z,137.9
2022-08-25T17:46:32.988Z,71
2022-08-25T17:51:35.833Z,50.9
2022-08-25T17:56:38.379Z,26.3
2022-08-25T18:01:43.029Z,20.5
2022-08-25T18:06:46.021Z,16.5
2022-08-25T18:11:48.776Z,8.1
2022-08-25T18:16:54.283Z,5.6
2022-08-25T18:21:56.986Z,3.7
2022-08-25T18:27:00.117Z,3.2
2022-08-25T18:32:05.622Z,3.3
2022-08-25T18:37:07.853Z,3.1
2022-08-25T18:42:12.506Z,3.7
2022-08-25T18:47:15.922Z,3.7
2022-08-25T18:52:22.333Z,4.6
2022-08-25T18:57:24.967Z,4
2022-08-25T19:02:30.555Z,4.5
2022-08-25T19:07:33.854Z,4.5
2022-08-25T19:12:40.872Z,4.3
2022-08-25T19:17:45.475Z,4
2022-08-25T19:22:48.195Z,9.3
2022-08-25T19:27:51.005Z,5.5
2022-08-25T19:32:54.562Z,4.4
2022-08-25T19:37:59.662Z,4
2022-08-25T19:43:01.986Z,4.8
2022-08-25T19:48:05.432Z,4.4
2022-08-25T19:53:09.804Z,4.1
2022-08-25T19:58:15.965Z,4.4
2022-08-25T20:03:22.207Z,4.3
2022-08-25T20:08:30.950Z,4.3
2022-08-25T20:13:33.656Z,4.8
2022-08-25T20:18:37.151Z,4.4
2022-08-25T20:23:41.570Z,4.5
2022-08-25T20:28:43.809Z,4.6
2022-08-25T20:33:46.798Z,5.1
2022-08-25T20:38:53.280Z,4.6
2022-08-25T20:43:59.519Z,5.2
2022-08-25T20:49:03.928Z,22.9
2022-08-25T20:54:06.943Z,5.2
2022-08-25T20:59:12.578Z,4.6
2022-08-25T21:04:21.499Z,5
2022-08-25T21:09:25.933Z,4.9
2022-08-25T21:14:28.797Z,4.9
2022-08-25T21:19:31.341Z,4.7
2022-08-25T21:24:33.982Z,4.9
2022-08-25T21:29:37.505Z,4.7
2022-08-25T21:34:48.388Z,4.7
2022-08-25T21:39:51.545Z,4.7
2022-08-25T21:44:54.822Z,4.8
2022-08-25T21:49:57.498Z,4.7
2022-08-25T21:55:02.064Z,5.4
2022-08-25T22:00:05.903Z,4.9
2022-08-25T22:05:11.709Z,4.6
2022-08-25T22:10:18.765Z,4.5
2022-08-25T22:15:21.200Z,4.8
2022-08-25T22:20:26.715Z,4.6
2022-08-25T22:25:32.381Z,4.6
2022-08-25T22:30:35.111Z,4.6
2022-08-25T22:35:42.881Z,4.6
2022-08-25T22:40:45.494Z,4.7
2022-08-25T22:45:51.404Z,4.7
2022-08-25T22:50:59.628Z,4.7
2022-08-25T22:56:03.371Z,4.6
2022-08-25T23:01:06.603Z,4.7
2022-08-25T23:06:09.406Z,5.1
2022-08-25T23:11:12.171Z,4.6
2022-08-25T23:16:15.617Z,4.7
2022-08-25T23:21:25.222Z,5
2022-08-25T23:26:20.232Z,5
2022-08-25T23:31:24.594Z,5.3
2022-08-25T23:36:29.044Z,5.5
2022-08-25T23:41:32.285Z,5.3
2022-08-25T23:46:37.401Z,4.8
2022-08-25T23:51:40.179Z,4.9
2022-08-25T23:56:53.242Z,4.4
